Time,TemperatureF,DewpointF,PressureIn,WindDirection,WindDirectionDegrees,WindSpeedMPH,WindSpeedGustMPH,Humidity,HourlyPrecipIn,Conditions,Clouds,dailyrainin,SoftwareType,DateUTC
2013-10-21 00:05:00,44.5,35.0,30.01,WSW,241,7.0,14.0,70,0.00,,,0.00,weatherlink.com 1.10,2013-10-21 04:05:00,
2013-10-21 00:20:00,44.3,35.0,30.01,WSW,257,2.0,16.0,71,0.00,,,0.00,weatherlink.com 1.10,2013-10-21 04:20:00,
2013-10-21 00:35:00,44.2,36.0,30.02,WSW,237,11.0,13.0,72,0.00,,,0.00,weatherlink.com 1.10,2013-10-21 04:35:00,
2013-10-21 00:50:00,44.0,36.0,30.02,SW,229,13.0,18.0,73,0.00,,,0.00,weatherlink.com 1.10,2013-10-21 04:50:00,
2013-10-21 01:05:00,44.0,36.0,30.02,SW,227,8.0,22.0,73,0.00,,,0.00,weatherlink.com 1.10,2013-10-21 05:05:00,
2013-10-21 01:20:00,44.2,36.0,30.02,WSW,239,5.0,18.0,74,0.00,,,0.00,weatherlink.com 1.10,2013-10-21 05:20:00,
2013-10-21 01:35:00,44.3,37.0,30.02,WSW,241,11.0,22.0,74,0.00,,,0.00,weatherlink.com 1.10,2013-10-21 05:35:00,
2013-10-21 01:50:00,44.2,36.0,30.02,WSW,246,5.0,18.0,74,0.00,,,0.00,weatherlink.com 1.10,2013-10-21 05:50:00,
2013-10-21 02:05:00,44.0,37.0,30.03,SSW,198,5.0,17.0,75,0.00,,,0.00,weatherlink.com 1.10,2013-10-21 06:05:00,
2013-10-21 02:20:00,44.1,37.0,30.03,WSW,243,7.0,22.0,75,0.00,,,0.00,weatherlink.com 1.10,2013-10-21 06:20:00,
2013-10-21 02:35:00,44.1,37.0,30.03,SW,227,8.0,22.0,75,0.00,,,0.00,weatherlink.com 1.10,2013-10-21 06:35:00,
2013-10-21 02:50:00,43.9,37.0,30.03,West,263,2.0,15.0,76,0.00,,,0.00,weatherlink.com 1.10,2013-10-21 06:50:00,
2013-10-21 03:06:00,44.0,37.0,30.03,SW,225,6.0,14.0,76,0.00,,,0.00,weatherlink.com 1.10,2013-10-21 07:06:00,
2013-10-21 03:21:00,43.5,37.0,30.04,SW,234,6.0,13.0,77,0.00,,,0.00,weatherlink.com 1.10,2013-10-21 07:21:00,
2013-10-21 03:36:00,43.6,37.0,30.04,WSW,238,8.0,14.0,78,0.00,,,0.00,weatherlink.com 1.10,2013-10-21 07:36:00,
2013-10-21 03:51:00,43.6,37.0,30.05,WSW,241,5.0,16.0,78,0.00,,,0.00,weatherlink.com 1.10,2013-10-21 07:51:00,
2013-10-21 04:06:00,43.4,37.0,30.05,SW,225,6.0,11.0,78,0.00,,,0.00,weatherlink.com 1.10,2013-10-21 08:06:00,
2013-10-21 04:21:00,43.6,37.0,30.05,SW,229,4.0,12.0,78,0.00,,,0.00,weatherlink.com 1.10,2013-10-21 08:21:00,
2013-10-21 04:36:00,43.1,37.0,30.05,SW,236,4.0,10.0,78,0.00,,,0.00,weatherlink.com 1.10,2013-10-21 08:36:00,
2013-10-21 04:51:00,43.3,37.0,30.06,SW,228,5.0,12.0,79,0.00,,,0.00,weatherlink.com 1.10,2013-10-21 08:51:00,
2013-10-21 05:06:00,43.3,37.0,30.07,SW,217,7.0,13.0,79,0.00,,,0.00,weatherlink.com 1.10,2013-10-21 09:06:00,
2013-10-21 05:21:00,43.2,37.0,30.07,SW,229,6.0,14.0,79,0.00,,,0.00,weatherlink.com 1.10,2013-10-21 09:21:00,
2013-10-21 05:36:00,43.2,37.0,30.07,SW,226,7.0,12.0,79,0.00,,,0.00,weatherlink.com 1.10,2013-10-21 09:36:00,
2013-10-21 05:51:00,43.1,37.0,30.07,SW,221,6.0,11.0,80,0.00,,,0.00,weatherlink.com 1.10,2013-10-21 09:51:00,
2013-10-21 06:06:00,42.9,37.0,30.07,SW,232,8.0,13.0,80,0.00,,,0.00,weatherlink.com 1.10,2013-10-21 10:06:00,
2013-10-21 06:21:00,43.2,37.0,30.07,WSW,243,4.0,13.0,80,0.00,,,0.00,weatherlink.com 1.10,2013-10-21 10:21:00,
2013-10-21 06:36:00,42.9,37.0,30.08,SW,235,9.0,9.0,80,0.00,,,0.00,weatherlink.com 1.10,2013-10-21 10:36:00,
2013-10-21 06:51:00,43.1,37.0,30.09,WSW,243,2.0,15.0,80,0.00,,,0.00,weatherlink.com 1.10,2013-10-21 10:51:00,
2013-10-21 07:06:00,43.2,37.0,30.09,SW,227,6.0,11.0,79,0.00,,,0.00,weatherlink.com 1.10,2013-10-21 11:06:00,
2013-10-21 07:21:00,43.1,37.0,30.09,SW,221,6.0,10.0,80,0.00,,,0.00,weatherlink.com 1.10,2013-10-21 11:21:00,
2013-10-21 07:36:00,43.4,37.0,30.09,WSW,245,7.0,11.0,79,0.00,,,0.00,weatherlink.com 1.10,2013-10-21 11:36:00,
2013-10-21 07:51:00,43.7,37.0,30.10,SW,218,5.0,12.0,78,0.00,,,0.00,weatherlink.com 1.10,2013-10-21 11:51:00,
2013-10-21 08:06:00,44.1,37.0,30.10,SW,227,1.0,11.0,77,0.00,,,0.00,weatherlink.com 1.10,2013-10-21 12:06:00,
2013-10-21 08:21:00,44.4,38.0,30.11,SW,234,9.0,11.0,77,0.00,,,0.00,weatherlink.com 1.10,2013-10-21 12:21:00,
2013-10-21 08:36:00,44.8,37.0,30.11,SW,224,5.0,12.0,75,0.00,,,0.00,weatherlink.com 1.10,2013-10-21 12:36:00,
2013-10-21 08:51:00,45.2,37.0,30.12,West,269,8.0,11.0,74,0.00,,,0.00,weatherlink.com 1.10,2013-10-21 12:51:00,
2013-10-21 09:06:00,45.4,38.0,30.12,WSW,237,12.0,14.0,74,0.00,,,0.00,weatherlink.com 1.10,2013-10-21 13:06:00,
2013-10-21 09:21:00,45.9,38.0,30.11,SSW,207,6.0,13.0,74,0.00,,,0.00,weatherlink.com 1.10,2013-10-21 13:21:00,
2013-10-21 09:36:00,46.7,38.0,30.11,SW,223,4.0,11.0,73,0.00,,,0.00,weatherlink.com 1.10,2013-10-21 13:36:00,
2013-10-21 09:51:00,47.5,39.0,30.11,SW,232,5.0,14.0,72,0.00,,,0.00,weatherlink.com 1.10,2013-10-21 13:51:00,
2013-10-21 10:21:00,48.7,39.0,30.12,WSW,240,5.0,13.0,69,0.00,,,0.00,weatherlink.com 1.10,2013-10-21 14:21:00,
2013-10-21 10:36:00,49.5,40.0,30.11,WSW,251,6.0,11.0,69,0.00,,,0.00,weatherlink.com 1.10,2013-10-21 14:36:00,
2013-10-21 10:52:00,50.2,40.0,30.11,West,262,1.0,10.0,68,0.00,,,0.00,weatherlink.com 1.10,2013-10-21 14:52:00,
2013-10-21 11:07:00,51.3,40.0,30.11,WSW,242,0.0,7.0,66,0.00,,,0.00,weatherlink.com 1.10,2013-10-21 15:07:00,
2013-10-21 11:22:00,51.8,40.0,30.10,WSW,240,5.0,10.0,64,0.00,,,0.00,weatherlink.com 1.10,2013-10-21 15:22:00,
2013-10-21 11:37:00,52.0,40.0,30.10,SSW,213,0.0,10.0,63,0.00,,,0.00,weatherlink.com 1.10,2013-10-21 15:37:00,
2013-10-21 11:52:00,53.1,40.0,30.09,SW,228,8.0,10.0,61,0.00,,,0.00,weatherlink.com 1.10,2013-10-21 15:52:00,
2013-10-21 12:07:00,53.3,40.0,30.09,SW,229,3.0,12.0,61,0.00,,,0.00,weatherlink.com 1.10,2013-10-21 16:07:00,
2013-10-21 12:22:00,54.2,40.0,30.09,NW,312,7.0,12.0,60,0.00,,,0.00,weatherlink.com 1.10,2013-10-21 16:22:00,
2013-10-21 12:37:00,53.9,40.0,30.09,SW,221,4.0,15.0,59,0.00,,,0.00,weatherlink.com 1.10,2013-10-21 16:37:00,
2013-10-21 12:52:00,54.9,40.0,30.09,WSW,248,9.0,14.0,58,0.00,,,0.00,weatherlink.com 1.10,2013-10-21 16:52:00,
2013-10-21 13:07:00,55.3,41.0,30.08,SW,220,11.0,17.0,58,0.00,,,0.00,weatherlink.com 1.10,2013-10-21 17:07:00,
2013-10-21 13:22:00,55.9,41.0,30.07,SW,232,4.0,15.0,57,0.00,,,0.00,weatherlink.com 1.10,2013-10-21 17:22:00,
2013-10-21 13:37:00,56.6,41.0,30.07,West,267,2.0,13.0,57,0.00,,,0.00,weatherlink.com 1.10,2013-10-21 17:37:00,
2013-10-21 13:52:00,57.2,41.0,30.07,SW,226,10.0,15.0,56,0.00,,,0.00,weatherlink.com 1.10,2013-10-21 17:52:00,
2013-10-21 14:07:00,57.9,42.0,30.06,SW,223,2.0,14.0,56,0.00,,,0.00,weatherlink.com 1.10,2013-10-21 18:07:00,
2013-10-21 14:22:00,58.2,41.0,30.05,SSW,198,0.0,14.0,54,0.00,,,0.00,weatherlink.com 1.10,2013-10-21 18:22:00,
2013-10-21 14:37:00,59.2,42.0,30.05,WSW,252,5.0,13.0,53,0.00,,,0.00,weatherlink.com 1.10,2013-10-21 18:37:00,
2013-10-21 14:52:00,58.6,41.0,30.05,SW,215,4.0,16.0,52,0.00,,,0.00,weatherlink.com 1.10,2013-10-21 18:52:00,
2013-10-21 15:07:00,58.7,41.0,30.05,SW,216,8.0,13.0,53,0.00,,,0.00,weatherlink.com 1.10,2013-10-21 19:07:00,
2013-10-21 15:22:00,58.6,41.0,30.05,SW,235,7.0,13.0,53,0.00,,,0.00,weatherlink.com 1.10,2013-10-21 19:22:00,
2013-10-21 15:37:00,58.5,41.0,30.05,SW,224,8.0,12.0,53,0.00,,,0.00,weatherlink.com 1.10,2013-10-21 19:37:00,
2013-10-21 15:52:00,58.0,41.0,30.04,SW,235,6.0,12.0,54,0.00,,,0.00,weatherlink.com 1.10,2013-10-21 19:52:00,
2013-10-21 16:07:00,57.9,42.0,30.04,South,189,0.0,9.0,55,0.00,,,0.00,weatherlink.com 1.10,2013-10-21 20:07:00,
2013-10-21 16:22:00,57.6,41.0,30.04,SW,231,2.0,6.0,54,0.00,,,0.00,weatherlink.com 1.10,2013-10-21 20:22:00,
2013-10-21 16:37:00,57.6,42.0,30.04,SW,215,0.0,4.0,57,0.00,,,0.00,weatherlink.com 1.10,2013-10-21 20:37:00,
2013-10-21 16:52:00,57.6,41.0,30.04,SW,223,0.0,8.0,55,0.00,,,0.00,weatherlink.com 1.10,2013-10-21 20:52:00,
2013-10-21 17:07:00,57.7,41.0,30.04,SW,218,0.0,10.0,54,0.00,,,0.00,weatherlink.com 1.10,2013-10-21 21:07:00,
2013-10-21 17:22:00,57.4,41.0,30.04,SW,223,2.0,9.0,55,0.00,,,0.00,weatherlink.com 1.10,2013-10-21 21:22:00,
2013-10-21 17:37:00,57.0,41.0,30.04,SSW,198,0.0,9.0,55,0.00,,,0.00,weatherlink.com 1.10,2013-10-21 21:37:00,
2013-10-21 17:52:00,56.7,40.0,30.04,SSW,198,5.0,8.0,55,0.00,,,0.00,weatherlink.com 1.10,2013-10-21 21:52:00,
2013-10-21 18:07:00,56.7,40.0,30.04,SW,219,7.0,8.0,55,0.00,,,0.00,weatherlink.com 1.10,2013-10-21 22:07:00,
2013-10-21 18:22:00,56.3,41.0,30.05,SSE,161,0.0,6.0,57,0.00,,,0.00,weatherlink.com 1.10,2013-10-21 22:22:00,
2013-10-21 18:37:00,55.9,41.0,30.04,SSE,153,5.0,9.0,58,0.00,,,0.00,weatherlink.com 1.10,2013-10-21 22:37:00,
2013-10-21 18:52:00,55.7,41.0,30.04,SE,128,5.0,10.0,58,0.00,,,0.00,weatherlink.com 1.10,2013-10-21 22:52:00,
2013-10-21 19:07:00,56.2,41.0,30.04,SW,223,6.0,14.0,58,0.00,,,0.00,weatherlink.com 1.10,2013-10-21 23:07:00,
2013-10-21 19:22:00,56.3,41.0,30.04,SW,215,2.0,12.0,57,0.00,,,0.00,weatherlink.com 1.10,2013-10-21 23:22:00,
2013-10-21 19:37:00,56.2,40.0,30.03,WSW,242,2.0,13.0,56,0.00,,,0.00,weatherlink.com 1.10,2013-10-21 23:37:00,
2013-10-21 19:52:00,55.1,40.0,30.03,WSW,239,10.0,16.0,58,0.00,,,0.00,weatherlink.com 1.10,2013-10-21 23:52:00,
2013-10-21 20:07:00,55.9,40.0,30.03,SW,218,8.0,17.0,55,0.00,,,0.00,weatherlink.com 1.10,2013-10-22 00:07:00,
2013-10-21 20:22:00,55.9,40.0,30.03,SW,215,6.0,17.0,55,0.00,,,0.00,weatherlink.com 1.10,2013-10-22 00:22:00,
2013-10-21 20:37:00,55.6,40.0,30.03,SW,236,9.0,15.0,56,0.00,,,0.00,weatherlink.com 1.10,2013-10-22 00:37:00,
2013-10-21 20:52:00,55.5,40.0,30.02,WSW,244,11.0,15.0,56,0.00,,,0.00,weatherlink.com 1.10,2013-10-22 00:52:00,
2013-10-21 21:07:00,55.1,39.0,30.02,SSW,199,4.0,17.0,56,0.00,,,0.00,weatherlink.com 1.10,2013-10-22 01:07:00,
2013-10-21 21:22:00,55.6,39.0,30.02,SW,226,10.0,17.0,54,0.00,,,0.00,weatherlink.com 1.10,2013-10-22 01:22:00,
2013-10-21 21:37:00,55.8,39.0,30.02,SW,232,11.0,16.0,54,0.00,,,0.00,weatherlink.com 1.10,2013-10-22 01:37:00,
2013-10-21 21:52:00,56.0,39.0,30.02,WSW,242,4.0,17.0,53,0.00,,,0.00,weatherlink.com 1.10,2013-10-22 01:52:00,
2013-10-21 22:07:00,55.9,39.0,30.02,SW,215,0.0,15.0,53,0.00,,,0.00,weatherlink.com 1.10,2013-10-22 02:07:00,
2013-10-21 22:22:00,53.9,39.0,30.01,WSW,238,12.0,17.0,58,0.00,,,0.00,weatherlink.com 1.10,2013-10-22 02:22:00,
2013-10-21 22:37:00,54.0,39.0,30.00,SW,230,8.0,12.0,57,0.00,,,0.00,weatherlink.com 1.10,2013-10-22 02:37:00,
2013-10-21 22:52:00,54.1,39.0,30.00,WSW,240,7.0,17.0,56,0.00,,,0.00,weatherlink.com 1.10,2013-10-22 02:52:00,
2013-10-21 23:08:00,54.1,38.0,30.00,South,172,12.0,17.0,54,0.00,,,0.00,weatherlink.com 1.10,2013-10-22 03:08:00,
2013-10-21 23:23:00,53.7,38.0,29.99,WSW,248,8.0,17.0,55,0.00,,,0.00,weatherlink.com 1.10,2013-10-22 03:23:00,
2013-10-21 23:38:00,53.1,38.0,29.99,SW,231,17.0,17.0,57,0.00,,,0.00,weatherlink.com 1.10,2013-10-22 03:38:00,
2013-10-21 23:53:00,52.4,38.0,29.98,SW,225,6.0,17.0,59,0.00,,,0.00,weatherlink.com 1.10,2013-10-22 03:53:00,